LTFJ/SAW METAR and TAF weather

Enter ICAO airport designator
Station Type Date Time Source
LTFJ METAR 2021/07/26 12:20 UTC NOAA

LTFJ 261220Z 03015KT 9999 SCT035 29/20 Q1017 NOSIG


Station Type Date Time Source
LTFJ Decoded METAR 2021/07/26 12:20 UTC NOAA

Istanbul / Sabiha Gokcen, Turkey (LTFJ) 40-53-55N 029-18-33E
Jul 26, 2021 - 08:20 AM EDT / 2021.07.26 1220 UTC
Wind: from the NNE (030 degrees) at 17 MPH (15 KT):0
Visibility: greater than 7 mile(s):0
Sky conditions: partly cloudy
Temperature: 84 F (29 C)
Dew Point: 68 F (20 C)
Relative Humidity: 58%
Pressure (altimeter): 30.03 in. Hg (1017 hPa)
ob: LTFJ 261220Z 03015KT 9999 SCT035 29/20 Q1017 NOSIG
cycle: 12

Station Type Date Time Source
LTFJ TAF 2021/07/26 12:03 UTC NOAA

TAF LTFJ 261040Z 2612/2712 04016KT 9999 SCT035
BECMG 2615/2618 CAVOK
BECMG 2618/2621 03005KT
BECMG 2621/2624 SCT010 PROB40
TEMPO 2701/2705 1100 BCFG BKN004
BECMG 2705/2708 04015KT
BECMG 2709/2712 CAVOK

Example: see airport list